createdAt,value
2022-09-13T00:00:47.646Z,11.80
2022-09-13T00:01:52.247Z,11.80
2022-09-13T00:02:59.075Z,11.80
2022-09-13T00:04:04.319Z,11.90
2022-09-13T00:05:09.105Z,11.80
2022-09-13T00:06:17.913Z,11.80
2022-09-13T00:07:25.687Z,11.70
2022-09-13T00:09:41.726Z,9.10
2022-09-13T00:10:46.853Z,11.70
2022-09-13T00:11:54.101Z,11.80
2022-09-13T00:13:02.813Z,11.70
2022-09-13T00:14:06.450Z,11.80
2022-09-13T00:15:14.087Z,11.70
2022-09-13T00:16:22.427Z,11.70
2022-09-13T00:17:31.109Z,11.70
2022-09-13T00:18:35.223Z,11.70
2022-09-13T00:19:40.256Z,11.70
2022-09-13T00:20:43.756Z,11.70
2022-09-13T00:21:49.569Z,11.70
2022-09-13T00:22:53.446Z,10.70
2022-09-13T00:23:59.114Z,11.70
2022-09-13T00:25:04.734Z,11.70
2022-09-13T00:26:14.069Z,11.30
2022-09-13T00:27:18.792Z,11.60
2022-09-13T00:28:24.113Z,11.50
2022-09-13T00:29:29.353Z,11.60
2022-09-13T00:30:34.708Z,11.50
2022-09-13T00:32:42.636Z,11.50
2022-09-13T00:33:45.706Z,11.50
2022-09-13T00:34:49.770Z,11.40
2022-09-13T00:35:53.035Z,11.50
2022-09-13T00:36:57.610Z,11.40
2022-09-13T00:38:03.317Z,11.40
2022-09-13T00:39:08.626Z,11.40
2022-09-13T00:40:12.567Z,11.40
2022-09-13T00:41:20.978Z,11.50
2022-09-13T00:42:33.228Z,11.40
2022-09-13T00:43:50.668Z,11.40
2022-09-13T00:45:00.247Z,11.40
2022-09-13T00:46:08.535Z,11.40
2022-09-13T00:47:21.381Z,11.40
2022-09-13T00:48:26.509Z,11.40
2022-09-13T00:49:38.427Z,11.40
2022-09-13T00:50:51.091Z,11.40
2022-09-13T00:52:01.271Z,11.30
2022-09-13T00:53:11.213Z,11.30
2022-09-13T00:54:21.525Z,11.30
2022-09-13T00:55:36.271Z,11.30
2022-09-13T00:56:44.911Z,11.30
2022-09-13T00:57:53.309Z,11.30
2022-09-13T00:59:03.259Z,11.30
2022-09-13T01:00:14.117Z,11.30
2022-09-13T01:01:20.407Z,11.30
2022-09-13T01:02:24.996Z,11.30
2022-09-13T01:03:31.722Z,11.30
2022-09-13T01:04:39.019Z,11.20
2022-09-13T01:05:51.039Z,11.30
2022-09-13T01:07:01.232Z,11.30
2022-09-13T01:08:22.624Z,11.20
2022-09-13T01:09:29.950Z,11.20
2022-09-13T01:10:36.584Z,11.20
2022-09-13T01:11:56.068Z,11.20
2022-09-13T01:13:14.902Z,11.20
2022-09-13T01:14:21.693Z,11.20
2022-09-13T01:15:24.740Z,11.20
2022-09-13T01:16:28.936Z,11.10
2022-09-13T01:17:35.202Z,11.20
2022-09-13T01:18:40.359Z,11.20
2022-09-13T01:19:45.689Z,11.20
2022-09-13T01:21:20.716Z,11.10
2022-09-13T01:23:13.686Z,11.20
2022-09-13T01:24:54.847Z,11.10
2022-09-13T01:26:55.167Z,11.10
2022-09-13T01:28:19.475Z,11.00
2022-09-13T01:30:01.850Z,11.00
2022-09-13T01:31:16.049Z,11.00
2022-09-13T01:32:32.337Z,10.90
2022-09-13T01:33:56.823Z,11.90
2022-09-13T01:35:18.159Z,11.00
2022-09-13T01:36:50.708Z,10.90
2022-09-13T01:38:03.875Z,10.90
2022-09-13T01:39:24.568Z,11.10
2022-09-13T01:40:49.643Z,12.60
2022-09-13T01:42:12.963Z,10.80
2022-09-13T01:43:32.729Z,10.90
2022-09-13T01:44:55.194Z,14.50
2022-09-13T01:46:07.200Z,10.80
2022-09-13T01:47:25.715Z,10.80
2022-09-13T01:48:47.603Z,10.70
2022-09-13T01:50:11.569Z,10.70
2022-09-13T01:51:27.617Z,10.70
2022-09-13T01:52:40.935Z,10.80
2022-09-13T01:53:53.275Z,10.60
2022-09-13T01:55:07.070Z,10.60
2022-09-13T01:56:17.789Z,10.70
2022-09-13T01:57:31.344Z,13.00
2022-09-13T01:58:44.116Z,10.60
2022-09-13T01:59:54.179Z,10.80
2022-09-13T02:01:11.221Z,10.60
2022-09-13T02:02:23.201Z,10.60
2022-09-13T02:03:34.680Z,10.60
2022-09-13T02:04:46.709Z,10.60
2022-09-13T02:05:58.652Z,10.60
2022-09-13T02:07:09.542Z,11.00
2022-09-13T02:08:19.486Z,10.50
2022-09-13T02:09:29.129Z,10.50
2022-09-13T02:10:38.749Z,10.50
2022-09-13T02:11:49.109Z,10.50
2022-09-13T02:12:56.542Z,10.50
2022-09-13T02:14:08.565Z,10.50
2022-09-13T02:15:17.279Z,10.50
2022-09-13T02:16:30.628Z,10.50
2022-09-13T02:17:39.991Z,10.40
2022-09-13T02:18:50.795Z,10.40
2022-09-13T02:20:00.477Z,10.40
2022-09-13T02:21:12.363Z,10.40
2022-09-13T02:22:23.435Z,10.50
2022-09-13T02:23:34.861Z,10.30
2022-09-13T02:24:43.665Z,10.30
2022-09-13T02:25:49.525Z,10.40
2022-09-13T02:26:57.917Z,10.40
2022-09-13T02:28:08.017Z,10.30
2022-09-13T02:29:18.109Z,10.30
2022-09-13T02:30:22.507Z,10.30
2022-09-13T02:31:37.803Z,10.30
2022-09-13T02:32:46.854Z,10.30
2022-09-13T02:33:58.751Z,10.30
2022-09-13T02:35:10.364Z,10.30
2022-09-13T02:36:22.515Z,10.20
2022-09-13T02:37:31.531Z,10.20
2022-09-13T02:38:45.364Z,10.20
2022-09-13T02:39:55.610Z,10.20
2022-09-13T02:41:09.040Z,10.20
2022-09-13T02:42:20.048Z,10.20
2022-09-13T02:43:32.999Z,10.20
2022-09-13T02:44:44.985Z,10.10
2022-09-13T02:45:55.945Z,11.50
2022-09-13T02:47:22.842Z,7.70
2022-09-13T02:48:38.619Z,10.10
2022-09-13T02:49:54.602Z,10.10
2022-09-13T02:51:06.851Z,10.00
2022-09-13T02:52:22.422Z,10.10
2022-09-13T02:53:39.461Z,10.00
2022-09-13T02:54:52.483Z,10.00
2022-09-13T02:56:06.531Z,9.90
2022-09-13T02:57:22.525Z,9.90
2022-09-13T02:58:35.837Z,9.90
2022-09-13T02:59:40.433Z,9.90
2022-09-13T03:00:44.942Z,9.80
2022-09-13T03:01:54.027Z,11.00
2022-09-13T03:03:04.757Z,9.80
2022-09-13T03:04:09.292Z,9.70
2022-09-13T03:05:12.555Z,10.30
2022-09-13T03:06:24.262Z,9.70
2022-09-13T03:07:27.297Z,12.50
2022-09-13T03:08:34.955Z,9.70
2022-09-13T03:09:43.781Z,11.10
2022-09-13T03:11:00.307Z,9.80
2022-09-13T03:12:28.732Z,9.70
2022-09-13T03:13:51.485Z,9.70
2022-09-13T03:15:04.587Z,9.70
2022-09-13T03:16:24.425Z,13.10
2022-09-13T03:17:43.717Z,9.80
2022-09-13T03:19:01.151Z,9.80
2022-09-13T03:20:19.202Z,9.70
2022-09-13T03:21:52.653Z,9.70
2022-09-13T03:23:22.272Z,9.70
2022-09-13T03:24:33.058Z,9.70
2022-09-13T03:25:55.362Z,9.60
2022-09-13T03:27:19.066Z,9.60
2022-09-13T03:28:34.938Z,9.70
2022-09-13T03:29:48.017Z,9.70
2022-09-13T03:30:58.599Z,9.70
2022-09-13T03:32:22.336Z,9.60
2022-09-13T03:33:31.795Z,9.60
2022-09-13T03:34:49.289Z,9.60
2022-09-13T03:37:13.473Z,9.60
2022-09-13T03:38:21.057Z,9.50
2022-09-13T03:39:36.864Z,9.60
2022-09-13T03:40:46.972Z,9.60
2022-09-13T03:41:57.813Z,9.50
2022-09-13T03:43:11.671Z,9.50
2022-09-13T03:44:20.905Z,9.50
2022-09-13T03:45:31.623Z,8.50
2022-09-13T03:46:40.311Z,9.40
2022-09-13T03:47:54.031Z,9.50
2022-09-13T03:49:01.337Z,9.30
2022-09-13T03:50:10.513Z,9.50
2022-09-13T03:51:14.120Z,9.50
2022-09-13T03:52:19.657Z,9.40
2022-09-13T03:53:26.601Z,9.50
2022-09-13T03:54:33.691Z,9.50
2022-09-13T03:55:43.161Z,9.50
2022-09-13T03:57:08.880Z,9.50
2022-09-13T03:58:16.599Z,9.50
2022-09-13T03:59:22.690Z,9.40
2022-09-13T04:00:26.978Z,9.40
2022-09-13T04:01:31.390Z,9.40
2022-09-13T04:02:34.987Z,9.40
2022-09-13T04:03:39.556Z,9.40
2022-09-13T04:04:44.695Z,9.50
2022-09-13T04:05:49.458Z,9.20
2022-09-13T04:06:54.584Z,9.40
2022-09-13T04:07:57.559Z,9.40
2022-09-13T04:09:03.765Z,9.40
2022-09-13T04:10:10.729Z,9.30
2022-09-13T04:11:19.932Z,9.40
2022-09-13T04:12:22.600Z,9.30
2022-09-13T04:13:27.451Z,9.50
2022-09-13T04:14:30.531Z,9.40
2022-09-13T04:15:34.025Z,9.40
2022-09-13T04:16:36.522Z,9.40
2022-09-13T04:18:46.527Z,9.40
2022-09-13T04:19:51.874Z,9.40
2022-09-13T04:21:00.751Z,9.40
2022-09-13T04:22:04.581Z,9.50
2022-09-13T04:23:07.483Z,9.50
2022-09-13T04:24:11.280Z,9.40
2022-09-13T04:25:14.665Z,9.70
2022-09-13T04:26:19.361Z,5.80
2022-09-13T04:27:22.440Z,9.40
2022-09-13T04:28:28.091Z,12.60
2022-09-13T04:29:34.951Z,9.40
2022-09-13T04:30:42.593Z,9.40
2022-09-13T04:31:46.957Z,9.50
2022-09-13T04:32:51.444Z,9.60
2022-09-13T04:33:55.368Z,9.70
2022-09-13T04:34:59.511Z,9.80
2022-09-13T04:36:04.400Z,9.90
2022-09-13T04:37:08.378Z,10.00
2022-09-13T04:38:11.585Z,10.10
2022-09-13T04:39:15.654Z,10.10
2022-09-13T04:40:18.881Z,10.20
2022-09-13T04:41:23.049Z,10.20
2022-09-13T04:42:25.673Z,10.30
2022-09-13T04:43:30.306Z,10.40
2022-09-13T04:44:36.080Z,10.60
2022-09-13T04:45:42.802Z,10.80
2022-09-13T04:46:49.047Z,11.10
2022-09-13T04:47:54.033Z,11.30
2022-09-13T04:48:58.832Z,11.60
2022-09-13T04:50:03.914Z,11.90
2022-09-13T04:51:08.662Z,12.30
2022-09-13T04:52:14.121Z,12.70
2022-09-13T04:53:20.416Z,13.00
2022-09-13T04:54:24.798Z,13.30
2022-09-13T04:55:28.012Z,13.60
2022-09-13T04:56:33.147Z,13.70
2022-09-13T04:57:36.219Z,13.80
2022-09-13T04:58:39.852Z,13.80
2022-09-13T04:59:44.474Z,13.80
2022-09-13T05:00:48.899Z,12.00
2022-09-13T05:01:54.100Z,14.30
2022-09-13T05:03:01.067Z,14.30
2022-09-13T05:04:05.496Z,14.40
2022-09-13T05:05:09.585Z,14.50
2022-09-13T05:06:18.182Z,14.50
2022-09-13T05:07:20.997Z,14.50
2022-09-13T05:08:24.969Z,14.60
2022-09-13T05:09:31.325Z,14.60
2022-09-13T05:10:34.198Z,13.80
2022-09-13T05:11:38.033Z,14.60
2022-09-13T05:12:40.880Z,14.70
2022-09-13T05:13:45.079Z,14.70
2022-09-13T05:14:48.157Z,14.70
2022-09-13T05:15:52.034Z,14.70
2022-09-13T05:16:55.353Z,14.70
2022-09-13T05:17:59.162Z,14.70
2022-09-13T05:19:03.139Z,14.70
2022-09-13T05:20:08.571Z,14.80
2022-09-13T05:21:15.404Z,14.80
2022-09-13T05:22:19.989Z,14.90
2022-09-13T05:23:24.574Z,15.00
2022-09-13T05:24:29.175Z,15.00
2022-09-13T05:25:35.393Z,16.90
2022-09-13T05:26:39.842Z,15.20
2022-09-13T05:27:46.414Z,15.20
2022-09-13T05:28:56.960Z,15.30
2022-09-13T05:30:02.824Z,15.40
2022-09-13T05:31:09.832Z,15.50
2022-09-13T05:32:13.677Z,15.60
2022-09-13T05:33:17.654Z,15.60
2022-09-13T05:34:22.991Z,15.70
2022-09-13T05:35:26.300Z,15.80
2022-09-13T05:36:34.390Z,15.90
2022-09-13T05:37:38.178Z,16.00
2022-09-13T05:38:41.381Z,14.70
2022-09-13T05:40:07.751Z,16.10
2022-09-13T05:41:10.263Z,16.30
2022-09-13T05:42:13.254Z,16.50
2022-09-13T05:43:17.450Z,14.20
2022-09-13T05:44:23.874Z,16.90
2022-09-13T05:45:27.831Z,17.10
2022-09-13T05:46:30.716Z,17.20
2022-09-13T05:47:34.587Z,17.30
2022-09-13T05:48:38.203Z,17.40
2022-09-13T05:50:08.350Z,17.70
2022-09-13T05:51:10.413Z,17.70
2022-09-13T05:52:18.037Z,17.60
2022-09-13T05:53:28.290Z,17.60
2022-09-13T05:54:31.614Z,17.60
2022-09-13T05:55:34.605Z,17.70
2022-09-13T05:56:39.200Z,17.80
2022-09-13T05:57:41.914Z,17.80
2022-09-13T05:58:48.345Z,17.90
2022-09-13T05:59:51.095Z,18.00
2022-09-13T06:00:56.987Z,18.00
2022-09-13T06:02:00.324Z,18.00
2022-09-13T06:03:03.963Z,18.00
2022-09-13T06:04:06.502Z,18.10
2022-09-13T06:05:11.674Z,19.60
2022-09-13T06:06:14.815Z,18.20
2022-09-13T06:07:19.774Z,18.30
2022-09-13T06:08:23.117Z,18.40
2022-09-13T06:09:29.030Z,18.50
2022-09-13T06:10:32.077Z,18.60
2022-09-13T06:11:38.412Z,18.70
2022-09-13T06:12:41.373Z,18.80
2022-09-13T06:13:45.204Z,18.90
2022-09-13T06:14:47.886Z,19.00
2022-09-13T06:15:52.014Z,19.20
2022-09-13T06:16:55.739Z,19.20
2022-09-13T06:18:00.918Z,19.30
2022-09-13T06:19:03.844Z,19.40
2022-09-13T06:20:09.581Z,19.60
2022-09-13T06:21:18.182Z,21.20
2022-09-13T06:22:24.855Z,19.80
2022-09-13T06:23:27.708Z,19.70
2022-09-13T06:24:31.352Z,19.80
2022-09-13T06:25:34.226Z,19.70
2022-09-13T06:26:39.575Z,19.80
2022-09-13T06:27:42.427Z,19.90
2022-09-13T06:28:49.787Z,19.90
2022-09-13T06:29:52.592Z,19.90
2022-09-13T06:31:02.285Z,19.90
2022-09-13T06:32:05.263Z,20.00
2022-09-13T06:33:08.994Z,20.60
2022-09-13T06:34:13.295Z,20.20
2022-09-13T06:35:16.997Z,20.30
2022-09-13T06:36:21.295Z,20.30
2022-09-13T06:37:26.423Z,20.30
2022-09-13T06:38:30.137Z,20.40
2022-09-13T06:39:34.500Z,20.50
2022-09-13T06:40:38.219Z,20.60
2022-09-13T06:41:41.781Z,20.70
2022-09-13T06:42:44.601Z,20.80
2022-09-13T06:43:48.796Z,20.90
2022-09-13T06:44:51.524Z,21.00
2022-09-13T06:45:56.866Z,21.00
2022-09-13T06:46:59.295Z,21.00
2022-09-13T06:48:03.422Z,21.70
2022-09-13T06:49:09.798Z,21.00
2022-09-13T06:50:13.919Z,21.00
2022-09-13T06:51:20.150Z,20.90
2022-09-13T06:52:24.033Z,20.80
2022-09-13T06:53:30.405Z,20.80
2022-09-13T06:54:32.788Z,20.80
2022-09-13T06:55:36.340Z,20.80
2022-09-13T06:56:41.176Z,20.90
2022-09-13T06:57:43.631Z,20.90
2022-09-13T06:58:49.227Z,20.90
2022-09-13T06:59:51.941Z,20.90
2022-09-13T07:00:56.276Z,20.90
2022-09-13T07:02:00.243Z,20.80
2022-09-13T07:03:04.079Z,20.80
2022-09-13T07:04:08.873Z,20.90
2022-09-13T07:05:12.785Z,21.00
2022-09-13T07:06:22.037Z,21.10
2022-09-13T07:07:28.051Z,21.30
2022-09-13T07:08:32.699Z,21.50
2022-09-13T07:09:36.364Z,21.50
2022-09-13T07:10:39.631Z,21.60
2022-09-13T07:11:44.165Z,21.70
2022-09-13T07:12:48.804Z,21.80
2022-09-13T07:13:55.010Z,21.70
2022-09-13T07:14:58.948Z,21.70
2022-09-13T07:16:07.626Z,21.60
2022-09-13T07:17:13.882Z,21.60
2022-09-13T07:18:16.495Z,21.60
2022-09-13T07:19:23.014Z,21.70
2022-09-13T07:20:25.590Z,21.70
2022-09-13T07:21:30.367Z,21.70
2022-09-13T07:22:35.569Z,21.80
2022-09-13T07:23:42.157Z,21.80
2022-09-13T07:24:45.669Z,21.80
2022-09-13T07:25:55.954Z,21.80
2022-09-13T07:27:00.043Z,21.80
2022-09-13T07:28:03.238Z,21.80
2022-09-13T07:29:10.692Z,21.80
2022-09-13T07:30:13.253Z,21.80
2022-09-13T07:31:21.112Z,21.80
2022-09-13T07:32:24.616Z,21.80
2022-09-13T07:33:27.221Z,21.80
2022-09-13T07:34:31.687Z,21.80
2022-09-13T07:35:34.433Z,21.80
2022-09-13T07:36:39.813Z,21.80
2022-09-13T07:37:45.853Z,21.80
2022-09-13T07:38:51.081Z,21.80
2022-09-13T07:39:55.064Z,21.90
2022-09-13T07:40:59.732Z,22.10
2022-09-13T07:42:05.742Z,21.80
2022-09-13T07:43:08.725Z,21.80
2022-09-13T07:44:14.112Z,21.80
2022-09-13T07:45:17.069Z,21.90
2022-09-13T07:46:22.947Z,21.80
2022-09-13T07:47:25.746Z,21.80
2022-09-13T07:48:33.712Z,21.80
2022-09-13T07:49:37.354Z,21.80
2022-09-13T07:50:41.168Z,22.00
2022-09-13T07:51:45.811Z,21.90
2022-09-13T07:52:48.518Z,22.00
2022-09-13T07:54:00.276Z,22.10
2022-09-13T07:55:03.028Z,22.20
2022-09-13T07:56:09.497Z,22.40
2022-09-13T07:57:12.963Z,22.50
2022-09-13T07:58:16.539Z,22.60
2022-09-13T07:59:20.725Z,22.60
2022-09-13T08:00:25.321Z,22.60
2022-09-13T08:01:32.789Z,22.60
2022-09-13T08:02:37.667Z,22.60
2022-09-13T08:03:41.594Z,22.70
2022-09-13T08:04:47.469Z,22.70
2022-09-13T08:05:50.046Z,22.70
2022-09-13T08:06:54.040Z,22.80
2022-09-13T08:07:56.709Z,22.90
2022-09-13T08:09:04.402Z,22.90
2022-09-13T08:10:07.666Z,22.90
2022-09-13T08:11:19.419Z,22.90
2022-09-13T08:12:22.382Z,22.90
2022-09-13T08:13:27.700Z,22.90
2022-09-13T08:14:31.607Z,22.80
2022-09-13T08:15:34.368Z,22.80
2022-09-13T08:16:39.497Z,22.80
2022-09-13T08:17:47.879Z,22.80
2022-09-13T08:18:53.308Z,22.70
2022-09-13T08:19:57.041Z,22.70
2022-09-13T08:21:02.431Z,22.60
2022-09-13T08:22:06.222Z,22.60
2022-09-13T08:23:13.955Z,22.50
2022-09-13T08:24:35.527Z,22.50
2022-09-13T08:25:38.903Z,22.40
2022-09-13T08:26:45.879Z,22.40
2022-09-13T08:27:48.453Z,22.30
2022-09-13T08:28:58.135Z,22.30
2022-09-13T08:30:00.724Z,22.20
2022-09-13T08:31:07.265Z,22.20
2022-09-13T08:32:12.064Z,22.20
2022-09-13T08:33:16.756Z,22.20
2022-09-13T08:34:21.689Z,22.20
2022-09-13T08:35:24.847Z,22.20
2022-09-13T08:36:30.714Z,21.70
2022-09-13T08:37:35.504Z,22.20
2022-09-13T08:38:41.578Z,22.20
2022-09-13T08:39:46.852Z,22.10
2022-09-13T08:40:56.859Z,22.00
2022-09-13T08:42:20.928Z,22.10
2022-09-13T08:43:41.314Z,22.10
2022-09-13T08:44:50.729Z,22.10
2022-09-13T08:46:03.038Z,22.10
2022-09-13T08:47:43.093Z,20.50
2022-09-13T08:48:51.557Z,22.10
2022-09-13T08:50:11.267Z,22.20
2022-09-13T08:51:29.887Z,22.20
2022-09-13T08:52:41.129Z,22.30
2022-09-13T08:53:51.563Z,22.30
2022-09-13T08:55:06.470Z,22.30
2022-09-13T08:56:21.433Z,22.20
2022-09-13T08:57:33.034Z,20.80
2022-09-13T08:59:04.325Z,22.30
2022-09-13T09:00:20.946Z,22.40
2022-09-13T09:01:40.359Z,22.40
2022-09-13T09:03:02.273Z,22.40
2022-09-13T09:04:16.275Z,22.50
2022-09-13T09:05:22.931Z,22.60
2022-09-13T09:06:27.447Z,22.60
2022-09-13T09:07:38.207Z,22.60
2022-09-13T09:08:54.787Z,22.60
2022-09-13T09:10:06.459Z,22.60
2022-09-13T09:11:18.972Z,22.50
2022-09-13T09:12:34.952Z,22.40
2022-09-13T09:13:50.301Z,22.40
2022-09-13T09:15:05.711Z,22.30
2022-09-13T09:16:25.986Z,22.30
2022-09-13T09:17:45.343Z,22.20
2022-09-13T09:18:50.097Z,22.20
2022-09-13T09:20:04.593Z,22.10
2022-09-13T09:21:17.938Z,22.00
2022-09-13T09:22:24.965Z,21.90
2022-09-13T09:23:35.935Z,21.90
2022-09-13T09:24:42.621Z,21.90
2022-09-13T09:25:49.954Z,21.90
2022-09-13T09:26:54.323Z,21.80
2022-09-13T09:27:59.298Z,21.80
2022-09-13T09:29:09.573Z,21.80
2022-09-13T09:30:16.664Z,21.80
2022-09-13T09:31:33.657Z,21.80
2022-09-13T09:32:51.588Z,21.90
2022-09-13T09:34:10.357Z,21.90
2022-09-13T09:35:28.965Z,21.90
2022-09-13T09:36:43.621Z,22.00
2022-09-13T09:38:01.581Z,22.00
2022-09-13T09:39:06.851Z,22.00
2022-09-13T09:40:17.306Z,22.00
2022-09-13T09:41:28.241Z,22.00
2022-09-13T09:42:42.928Z,22.00
2022-09-13T09:43:57.207Z,22.00
2022-09-13T09:45:05.881Z,22.00
2022-09-13T09:46:14.287Z,22.10
2022-09-13T09:47:25.944Z,22.10
2022-09-13T09:48:43.802Z,22.10
2022-09-13T09:50:08.721Z,22.10
2022-09-13T09:51:17.078Z,22.20
2022-09-13T09:52:26.444Z,22.20
2022-09-13T09:53:37.189Z,21.30
2022-09-13T09:54:44.251Z,22.20
2022-09-13T09:55:54.325Z,22.20
2022-09-13T09:56:59.192Z,22.30
2022-09-13T09:58:06.766Z,22.20
2022-09-13T09:59:26.987Z,22.20
2022-09-13T10:00:34.307Z,22.30
2022-09-13T10:01:40.178Z,22.30
2022-09-13T10:02:47.643Z,22.20
2022-09-13T10:04:03.626Z,23.00
2022-09-13T10:05:07.258Z,22.20
2022-09-13T10:06:15.482Z,22.40
2022-09-13T10:07:32.811Z,22.40
2022-09-13T10:08:39.040Z,22.40
2022-09-13T10:09:59.161Z,22.40
2022-09-13T10:11:04.900Z,22.50
2022-09-13T10:12:11.329Z,22.50
2022-09-13T10:13:20.133Z,22.60
2022-09-13T10:14:38.480Z,22.50
2022-09-13T10:15:55.839Z,22.50
2022-09-13T10:17:16.183Z,22.50
2022-09-13T10:18:43.071Z,22.50
2022-09-13T10:20:01.455Z,22.50
2022-09-13T10:21:10.459Z,22.40
2022-09-13T10:22:14.940Z,22.40
2022-09-13T10:23:21.707Z,22.40
2022-09-13T10:24:27.418Z,22.40
2022-09-13T10:25:32.006Z,22.40
2022-09-13T10:26:39.475Z,22.40
2022-09-13T10:27:51.055Z,22.40
2022-09-13T10:29:02.254Z,22.40
2022-09-13T10:30:08.136Z,22.20
2022-09-13T10:31:17.554Z,22.20
2022-09-13T10:32:23.158Z,22.10
2022-09-13T10:33:32.321Z,22.00
2022-09-13T10:34:39.068Z,21.90
2022-09-13T10:35:42.861Z,21.90
2022-09-13T10:36:57.610Z,21.90
2022-09-13T10:38:02.402Z,21.90
2022-09-13T10:39:11.826Z,22.70
2022-09-13T10:40:28.450Z,21.90
2022-09-13T10:41:36.100Z,21.90
2022-09-13T10:42:40.001Z,21.90
2022-09-13T10:43:44.283Z,21.90
2022-09-13T10:44:57.302Z,22.00
2022-09-13T10:46:04.379Z,22.00
2022-09-13T10:47:20.556Z,21.90
2022-09-13T10:48:24.464Z,21.90
2022-09-13T10:49:40.125Z,21.80
2022-09-13T10:51:07.157Z,21.80
2022-09-13T10:52:44.507Z,21.80
2022-09-13T10:53:47.891Z,21.70
2022-09-13T10:54:51.532Z,22.90
2022-09-13T10:55:56.008Z,21.70
2022-09-13T10:57:01.007Z,21.70
2022-09-13T10:58:17.674Z,21.80
2022-09-13T10:59:34.013Z,21.70
2022-09-13T11:01:13.607Z,21.70
2022-09-13T11:02:55.974Z,21.70
2022-09-13T11:04:30.092Z,21.70
2022-09-13T11:05:43.161Z,21.70
2022-09-13T11:07:02.223Z,21.60
2022-09-13T11:08:33.076Z,21.60
2022-09-13T11:09:45.501Z,21.60
2022-09-13T11:11:08.029Z,21.60
2022-09-13T11:12:24.696Z,21.70
2022-09-13T11:13:40.824Z,21.70
2022-09-13T11:15:00.958Z,21.70
2022-09-13T11:16:23.928Z,21.80
2022-09-13T11:17:55.060Z,21.80
2022-09-13T11:19:33.932Z,21.80
2022-09-13T11:20:56.790Z,21.90
2022-09-13T11:22:24.683Z,21.90
2022-09-13T11:23:51.204Z,21.90
2022-09-13T11:25:15.494Z,22.00
2022-09-13T11:26:42.092Z,22.00
2022-09-13T11:28:05.192Z,22.10
2022-09-13T11:29:27.510Z,22.00
2022-09-13T11:30:50.538Z,21.90
2022-09-13T11:32:08.871Z,21.90
2022-09-13T11:33:31.783Z,21.80
2022-09-13T11:34:52.601Z,21.60
2022-09-13T11:36:18.904Z,21.60
2022-09-13T11:37:41.493Z,21.60
2022-09-13T11:39:04.077Z,20.20
2022-09-13T11:40:34.119Z,19.60
2022-09-13T11:41:47.095Z,21.50
2022-09-13T11:43:05.318Z,21.50
2022-09-13T11:44:35.442Z,21.40
2022-09-13T11:45:56.132Z,21.40
2022-09-13T11:47:15.075Z,21.50
2022-09-13T11:48:45.517Z,21.50
2022-09-13T11:50:24.428Z,21.60
2022-09-13T11:51:43.716Z,21.70
2022-09-13T11:53:04.484Z,21.60
2022-09-13T11:54:29.155Z,21.60
2022-09-13T11:55:38.663Z,21.50
2022-09-13T11:56:48.668Z,21.40
2022-09-13T11:57:57.172Z,21.60
2022-09-13T11:59:20.849Z,21.60
2022-09-13T12:00:28.413Z,21.60
2022-09-13T12:01:40.992Z,21.70
2022-09-13T12:02:53.024Z,21.70
2022-09-13T12:04:04.132Z,21.70
2022-09-13T12:05:24.527Z,21.70
2022-09-13T12:06:34.690Z,21.70
2022-09-13T12:07:45.021Z,21.70
2022-09-13T12:08:57.143Z,21.70
2022-09-13T12:10:06.635Z,21.70
2022-09-13T12:11:19.823Z,21.60
2022-09-13T12:12:29.361Z,21.60
2022-09-13T12:13:43.476Z,21.60
2022-09-13T12:14:53.132Z,22.10
2022-09-13T12:16:05.785Z,21.70
2022-09-13T12:17:31.564Z,21.60
2022-09-13T12:18:44.832Z,21.90
2022-09-13T12:19:57.380Z,21.60
2022-09-13T12:21:09.055Z,21.60
2022-09-13T12:22:15.839Z,21.60
2022-09-13T12:23:28.696Z,21.60
2022-09-13T12:24:41.674Z,22.70
2022-09-13T12:25:53.119Z,23.80
2022-09-13T12:27:06.012Z,21.40
2022-09-13T12:28:19.766Z,21.40
2022-09-13T12:29:33.675Z,21.30
2022-09-13T12:30:46.621Z,21.30
2022-09-13T12:31:50.496Z,21.20
2022-09-13T12:32:59.138Z,21.20
2022-09-13T12:34:12.330Z,21.10
2022-09-13T12:35:26.589Z,21.30
2022-09-13T12:37:02.393Z,21.00
2022-09-13T12:38:35.430Z,21.00
2022-09-13T12:40:06.472Z,19.90
2022-09-13T12:41:38.062Z,21.00
2022-09-13T12:43:09.098Z,21.00
2022-09-13T12:44:49.790Z,21.00
2022-09-13T12:46:26.456Z,20.90
2022-09-13T12:47:54.808Z,21.00
2022-09-13T12:49:27.313Z,21.00
2022-09-13T12:51:01.349Z,21.00
2022-09-13T12:52:22.877Z,21.00
2022-09-13T12:53:52.813Z,20.90
2022-09-13T12:55:45.989Z,20.90
2022-09-13T12:57:12.460Z,20.80
2022-09-13T12:58:47.842Z,20.80
2022-09-13T13:00:13.368Z,20.70
2022-09-13T13:01:22.647Z,20.70
2022-09-13T13:02:31.247Z,20.70
2022-09-13T13:03:51.252Z,20.70
2022-09-13T13:05:02.489Z,20.70
2022-09-13T13:06:22.023Z,20.70
2022-09-13T13:07:26.387Z,20.70
2022-09-13T13:08:32.842Z,20.70
2022-09-13T13:09:43.024Z,20.60
2022-09-13T13:11:01.609Z,20.60
2022-09-13T13:12:06.913Z,19.00
2022-09-13T13:13:13.003Z,20.50
2022-09-13T13:14:54.630Z,20.50
2022-09-13T13:16:04.174Z,20.40
2022-09-13T13:17:44.005Z,20.20
2022-09-13T13:18:49.741Z,20.20
2022-09-13T13:19:58.514Z,20.10
2022-09-13T13:21:31.593Z,20.10
2022-09-13T13:22:57.828Z,19.90
2022-09-13T13:24:45.961Z,20.00
2022-09-13T13:26:11.924Z,20.00
2022-09-13T13:27:49.964Z,19.90
2022-09-13T13:29:16.044Z,19.90
2022-09-13T13:30:48.744Z,19.90
2022-09-13T13:32:13.695Z,19.90
2022-09-13T13:33:21.394Z,19.90
2022-09-13T13:34:42.806Z,19.90
2022-09-13T13:35:49.782Z,19.90
2022-09-13T13:37:05.130Z,19.80
2022-09-13T13:38:49.448Z,19.80
2022-09-13T13:40:25.447Z,19.80
2022-09-13T13:41:56.326Z,19.00
2022-09-13T13:43:19.305Z,19.80
2022-09-13T13:45:10.321Z,19.80
2022-09-13T13:46:31.259Z,19.80
2022-09-13T13:48:10.137Z,19.80
2022-09-13T13:49:44.864Z,19.80
2022-09-13T13:51:15.631Z,19.90
2022-09-13T13:52:39.095Z,19.90
2022-09-13T13:53:46.708Z,20.00
2022-09-13T13:55:22.609Z,20.00
2022-09-13T13:56:41.339Z,20.10
2022-09-13T13:58:00.229Z,20.10
2022-09-13T13:59:19.115Z,20.00
2022-09-13T14:00:30.452Z,20.00
2022-09-13T14:01:38.576Z,20.10
2022-09-13T14:02:53.805Z,20.00
2022-09-13T14:04:24.501Z,20.10
2022-09-13T14:05:41.185Z,20.00
2022-09-13T14:07:06.088Z,20.00
2022-09-13T14:08:37.159Z,20.00
2022-09-13T14:09:55.866Z,20.00
2022-09-13T14:11:14.555Z,20.20
2022-09-13T14:12:41.318Z,20.10
2022-09-13T14:14:04.976Z,20.20
2022-09-13T14:15:43.488Z,20.20
2022-09-13T14:17:05.688Z,20.20
2022-09-13T14:18:49.705Z,20.30
2022-09-13T14:19:57.136Z,20.30
2022-09-13T14:21:01.649Z,20.30
2022-09-13T14:22:18.292Z,20.20
2022-09-13T14:23:21.766Z,20.10
2022-09-13T14:24:27.661Z,20.10
2022-09-13T14:25:31.292Z,20.10
2022-09-13T14:26:38.087Z,20.10
2022-09-13T14:27:46.447Z,20.10
2022-09-13T14:28:52.279Z,20.10
2022-09-13T14:30:03.943Z,20.10
2022-09-13T14:31:08.407Z,20.10
2022-09-13T14:32:20.751Z,20.10
2022-09-13T14:33:31.491Z,20.10
2022-09-13T14:34:39.833Z,20.10
2022-09-13T14:35:42.558Z,20.20
2022-09-13T14:36:55.730Z,20.10
2022-09-13T14:38:13.771Z,20.10
2022-09-13T14:39:18.722Z,20.10
2022-09-13T14:40:26.848Z,20.10
2022-09-13T14:41:35.126Z,20.10
2022-09-13T14:42:43.834Z,20.00
2022-09-13T14:43:51.475Z,20.00
2022-09-13T14:44:55.513Z,20.00
2022-09-13T14:46:11.442Z,20.00
2022-09-13T14:47:24.916Z,19.90
2022-09-13T14:48:35.478Z,19.90
2022-09-13T14:49:49.327Z,19.90
2022-09-13T14:51:06.257Z,19.90
2022-09-13T14:52:22.654Z,20.00
2022-09-13T14:53:31.666Z,20.00
2022-09-13T14:54:42.230Z,20.10
2022-09-13T14:55:52.379Z,20.10
2022-09-13T14:57:01.047Z,20.10
2022-09-13T14:58:14.755Z,20.20
2022-09-13T14:59:27.575Z,20.20
2022-09-13T15:00:42.884Z,20.20
2022-09-13T15:01:50.798Z,20.10
2022-09-13T15:02:59.047Z,20.10
2022-09-13T15:04:07.553Z,20.10
2022-09-13T15:05:18.138Z,20.10
2022-09-13T15:06:26.387Z,20.10
2022-09-13T15:07:33.835Z,20.10
2022-09-13T15:08:51.743Z,20.10
2022-09-13T15:10:07.669Z,20.10
2022-09-13T15:11:19.940Z,20.20
2022-09-13T15:12:26.284Z,19.00
2022-09-13T15:13:32.023Z,20.20
2022-09-13T15:14:38.083Z,20.20
2022-09-13T15:15:50.286Z,20.20
2022-09-13T15:16:59.818Z,20.20
2022-09-13T15:18:06.793Z,20.30
2022-09-13T15:19:30.286Z,20.30
2022-09-13T15:20:52.997Z,20.30
2022-09-13T15:22:21.184Z,20.30
2022-09-13T15:23:29.697Z,20.30
2022-09-13T15:24:36.668Z,20.30
2022-09-13T15:25:43.689Z,20.30
2022-09-13T15:26:46.961Z,20.30
2022-09-13T15:27:57.534Z,20.30
2022-09-13T15:29:03.604Z,20.30